Time;durP1;ratioP1;P1;durP2;ratioP2;P2;SDS_P1;SDS_P2;PMS_P1;PMS_P2;Temp;Humidity;BMP_temperature;BMP_pressure;BME280_temperature;BME280_humidity;BME280_pressure;Samples;Min_cycle;Max_cycle;Signal;HPM_P1;HPM_P2
2023/09/18 00:02:20;;;;;;;16.40;8.48;;;20.50;71.70;;;;;;5053319;28;20396;-76
2023/09/18 00:04:46;;;;;;;12.37;8.63;;;20.40;72.50;;;;;;5034729;28;20401;-76
2023/09/18 00:07:11;;;;;;;11.90;8.32;;;20.30;73.60;;;;;;5052712;28;20382;-76
2023/09/18 00:09:37;;;;;;;14.43;8.40;;;20.20;73.70;;;;;;5052685;28;20404;-76
2023/09/18 00:12:03;;;;;;;11.27;8.10;;;20.20;74.20;;;;;;5052493;28;20392;-77
2023/09/18 00:14:29;;;;;;;15.68;7.95;;;20.20;74.40;;;;;;5052000;28;20389;-77
2023/09/18 00:16:57;;;;;;;18.88;8.43;;;20.10;74.60;;;;;;5053515;28;20893;-76
2023/09/18 00:19:23;;;;;;;10.85;8.40;;;20.10;74.90;;;;;;5052453;28;20415;-75
2023/09/18 00:21:49;;;;;;;17.75;8.23;;;20.10;75.10;;;;;;5051661;28;20815;-76
2023/09/18 00:24:14;;;;;;;17.08;9.07;;;20.00;75.20;;;;;;5051532;28;20476;-76
2023/09/18 00:26:40;;;;;;;13.30;8.60;;;20.00;75.50;;;;;;5051295;28;20451;-75
2023/09/18 00:29:05;;;;;;;15.05;9.10;;;20.00;75.70;;;;;;5050873;28;20401;-76
2023/09/18 00:31:31;;;;;;;13.70;8.70;;;19.90;76.30;;;;;;5050870;28;20492;-75
2023/09/18 00:33:56;;;;;;;12.73;8.63;;;19.90;76.70;;;;;;5050838;28;20389;-76
2023/09/18 00:36:22;;;;;;;17.43;9.00;;;19.90;76.90;;;;;;5051332;28;20464;-76
2023/09/18 00:38:47;;;;;;;12.63;8.30;;;19.90;77.10;;;;;;5051684;28;20385;-76
2023/09/18 00:41:13;;;;;;;11.27;8.10;;;19.80;77.40;;;;;;5051158;28;20382;-76
2023/09/18 00:43:39;;;;;;;16.93;9.40;;;19.80;78.60;;;;;;5051034;28;20483;-75
2023/09/18 00:46:05;;;;;;;17.25;9.50;;;19.80;78.70;;;;;;5052543;28;20415;-76
2023/09/18 00:48:31;;;;;;;14.07;8.77;;;19.80;79.00;;;;;;5052990;28;20396;-77
2023/09/18 00:50:56;;;;;;;17.20;9.55;;;19.70;79.20;;;;;;5052476;28;20401;-77
2023/09/18 00:53:25;;;;;;;15.33;8.90;;;19.70;80.00;;;;;;5053517;28;20382;-77
2023/09/18 00:55:55;;;;;;;15.13;8.93;;;19.70;79.30;;;;;;5054972;28;20377;-76
2023/09/18 00:58:22;;;;;;;17.45;9.20;;;19.80;80.20;;;;;;5056912;28;20555;-76
2023/09/18 01:00:50;;;;;;;16.92;8.93;;;19.70;80.00;;;;;;5056270;28;20393;-77
2023/09/18 01:03:18;;;;;;;20.13;8.40;;;19.70;80.20;;;;;;5035109;28;20393;-77
2023/09/18 01:05:44;;;;;;;13.10;8.50;;;19.60;80.50;;;;;;5058561;28;20450;-77
2023/09/18 01:08:10;;;;;;;16.43;9.20;;;19.60;81.00;;;;;;5038631;28;20389;-76
2023/09/18 01:11:14;;;;;;;17.00;9.27;;;19.70;81.20;;;;;;5053261;28;20917;-77
2023/09/18 01:13:51;;;;;;;15.80;8.98;;;19.60;80.80;;;;;;5059905;28;20381;-76
2023/09/18 01:16:43;;;;;;;21.27;8.60;;;19.70;81.10;;;;;;5041862;28;20401;-77
2023/09/18 01:19:09;;;;;;;14.43;8.68;;;19.60;80.70;;;;;;5056846;28;20488;-77
2023/09/18 01:21:35;;;;;;;15.50;9.50;;;19.70;81.20;;;;;;5035257;28;20432;-76
2023/09/18 01:24:00;;;;;;;18.00;9.70;;;19.70;80.90;;;;;;5052600;28;20401;-77
2023/09/18 01:26:26;;;;;;;14.75;8.52;;;19.70;80.80;;;;;;5055640;28;20381;-76
2023/09/18 01:28:51;;;;;;;11.80;8.03;;;19.70;80.30;;;;;;5054621;28;20389;-76
2023/09/18 01:31:17;;;;;;;15.60;8.32;;;19.70;79.40;;;;;;5055753;28;20455;-77
2023/09/18 01:33:47;;;;;;;13.18;8.23;;;19.70;78.60;;;;;;5054829;28;20492;-77
2023/09/18 01:36:14;;;;;;;15.60;8.63;;;19.80;77.80;;;;;;5055036;28;20478;-77
2023/09/18 01:38:41;;;;;;;15.15;7.90;;;19.80;77.60;;;;;;5056873;28;20385;-77
2023/09/18 01:41:06;;;;;;;13.87;8.40;;;19.80;77.20;;;;;;5057360;28;20424;-77
2023/09/18 01:43:32;;;;;;;11.87;8.00;;;19.90;75.90;;;;;;5039361;28;20404;-77
2023/09/18 01:45:58;;;;;;;13.25;8.43;;;19.80;76.20;;;;;;5038333;28;20393;-76
2023/09/18 01:48:23;;;;;;;16.58;8.40;;;19.90;75.60;;;;;;5039091;28;20393;-77
2023/09/18 01:50:49;;;;;;;15.47;8.10;;;19.90;75.40;;;;;;5056167;28;20397;-77
2023/09/18 01:53:14;;;;;;;16.77;8.43;;;19.90;74.70;;;;;;5056234;28;20803;-77
2023/09/18 01:55:41;;;;;;;11.20;8.00;;;19.90;75.20;;;;;;5067417;28;20400;-77
2023/09/18 01:58:06;;;;;;;14.05;8.70;;;19.80;75.00;;;;;;5068259;28;20393;-76
2023/09/18 02:00:33;;;;;;;16.70;8.57;;;19.90;73.20;;;;;;5065415;28;20393;-77
2023/09/18 02:02:59;;;;;;;11.38;8.13;;;19.90;74.10;;;;;;5050096;28;20419;-77
2023/09/18 02:05:24;;;;;;;16.00;7.72;;;19.80;74.70;;;;;;5050251;28;20396;-76
2023/09/18 02:07:50;;;;;;;11.03;8.00;;;19.80;75.50;;;;;;5059670;28;20771;-78
2023/09/18 02:10:16;;;;;;;12.85;8.55;;;19.80;75.80;;;;;;5054672;28;20409;-76
2023/09/18 02:12:42;;;;;;;15.25;8.38;;;19.80;76.10;;;;;;5035692;28;20396;-76
2023/09/18 02:15:10;;;;;;;16.88;8.57;;;19.70;76.00;;;;;;5053707;28;20377;-75
2023/09/18 02:17:35;;;;;;;15.18;8.23;;;19.80;75.80;;;;;;5054125;28;20439;-76
2023/09/18 02:20:05;;;;;;;14.23;8.20;;;19.80;75.50;;;;;;5053731;28;20769;-75
2023/09/18 02:22:32;;;;;;;22.40;8.30;;;19.80;75.10;;;;;;5053700;28;20704;-76
2023/09/18 02:24:58;;;;;;;17.38;8.10;;;19.90;74.20;;;;;;5035567;28;20397;-76
2023/09/18 02:27:24;;;;;;;17.48;8.30;;;19.90;74.80;;;;;;5053483;28;20952;-75
2023/09/18 02:29:50;;;;;;;14.68;8.20;;;19.80;75.50;;;;;;5053657;28;20427;-75
2023/09/18 02:32:16;;;;;;;12.52;8.10;;;19.80;75.40;;;;;;5035381;28;20385;-76
2023/09/18 02:34:41;;;;;;;13.98;8.38;;;19.80;75.30;;;;;;5054009;28;20465;-77
2023/09/18 02:37:07;;;;;;;12.57;8.20;;;19.70;76.50;;;;;;5052451;28;20882;-76
2023/09/18 02:39:32;;;;;;;16.43;8.67;;;19.80;76.30;;;;;;5053295;28;20906;-77
2023/09/18 02:41:58;;;;;;;15.17;8.77;;;19.70;77.00;;;;;;5053201;28;20901;-76
2023/09/18 02:44:24;;;;;;;16.00;8.10;;;19.80;76.90;;;;;;5054318;28;20874;-76
2023/09/18 02:46:49;;;;;;;19.80;8.65;;;20.00;74.00;;;;;;5055554;28;20420;-76
2023/09/18 02:49:15;;;;;;;12.37;8.10;;;20.10;73.00;;;;;;5055886;28;20389;-77
2023/09/18 02:51:40;;;;;;;19.27;8.13;;;20.20;70.70;;;;;;5035261;28;20393;-77
2023/09/18 02:54:06;;;;;;;17.47;7.57;;;20.40;67.50;;;;;;5053218;28;20418;-77
2023/09/18 02:56:31;;;;;;;11.45;7.30;;;20.50;65.70;;;;;;5035570;28;20392;-75
2023/09/18 02:58:57;;;;;;;10.43;6.90;;;20.50;64.80;;;;;;5035013;28;20917;-76
2023/09/18 03:01:22;;;;;;;15.73;8.00;;;20.60;63.90;;;;;;5052993;28;20416;-76
2023/09/18 03:03:48;;;;;;;13.57;7.85;;;20.60;63.20;;;;;;5053289;28;20385;-77
2023/09/18 03:06:14;;;;;;;15.23;7.90;;;20.70;63.00;;;;;;5054357;28;20892;-76
2023/09/18 03:08:39;;;;;;;15.98;7.38;;;20.70;64.10;;;;;;5055573;28;20385;-77
2023/09/18 03:11:14;;;;;;;14.93;8.10;;;20.70;63.70;;;;;;5050383;23;20439;-73
2023/09/18 03:13:47;;;;;;;13.20;7.80;;;20.70;64.00;;;;;;5034067;28;20379;-73
2023/09/18 03:16:12;;;;;;;16.23;8.35;;;20.60;65.90;;;;;;5033530;28;20386;-72
2023/09/18 03:18:38;;;;;;;15.05;7.57;;;20.50;66.70;;;;;;5015929;28;20482;-71
2023/09/18 03:21:04;;;;;;;15.73;7.70;;;20.40;67.60;;;;;;5050591;28;20378;-73
2023/09/18 03:23:29;;;;;;;15.90;8.30;;;20.40;68.20;;;;;;5059284;28;20829;-73
2023/09/18 03:25:55;;;;;;;16.88;8.50;;;20.30;68.90;;;;;;5041992;28;20734;-73
2023/09/18 03:28:20;;;;;;;13.10;7.73;;;20.30;69.10;;;;;;5065489;28;20419;-74
2023/09/18 03:30:46;;;;;;;19.85;8.55;;;20.40;68.10;;;;;;5062934;28;20402;-73
2023/09/18 03:33:12;;;;;;;13.30;8.03;;;20.40;68.30;;;;;;5038477;28;20805;-73
2023/09/18 03:35:48;;;;;;;14.35;8.07;;;20.30;69.70;;;;;;5054598;28;20765;-72
2023/09/18 03:38:14;;;;;;;13.85;7.93;;;20.50;68.20;;;;;;5053292;28;20443;-75
2023/09/18 03:40:40;;;;;;;15.50;8.18;;;20.40;70.00;;;;;;5052673;28;20409;-72
2023/09/18 03:43:07;;;;;;;14.32;7.82;;;20.30;72.10;;;;;;5053364;28;20409;-73
2023/09/18 03:45:32;;;;;;;15.63;8.85;;;20.30;72.80;;;;;;5052518;28;20407;-72
2023/09/18 03:47:58;;;;;;;16.83;9.00;;;20.20;73.80;;;;;;5052226;28;20390;-72
2023/09/18 03:50:24;;;;;;;16.33;8.63;;;20.10;74.80;;;;;;5052238;28;20462;-73
2023/09/18 03:52:49;;;;;;;14.15;7.90;;;20.20;74.90;;;;;;5052319;28;20393;-72
2023/09/18 03:55:15;;;;;;;13.20;7.93;;;20.20;74.00;;;;;;5052721;28;20746;-73
2023/09/18 03:57:43;;;;;;;19.25;8.02;;;20.30;72.10;;;;;;5052440;28;20385;-73
2023/09/18 04:00:08;;;;;;;16.00;8.10;;;20.30;71.30;;;;;;5052255;28;20866;-73
2023/09/18 04:02:34;;;;;;;14.98;7.47;;;20.30;70.70;;;;;;5052042;28;20401;-72
2023/09/18 04:05:00;;;;;;;12.40;8.00;;;20.30;71.20;;;;;;5052343;28;20381;-73
2023/09/18 04:07:26;;;;;;;16.25;8.00;;;20.30;70.80;;;;;;5052105;28;20947;-72
2023/09/18 04:09:51;;;;;;;14.27;7.53;;;20.40;70.40;;;;;;5051719;28;20413;-73
2023/09/18 04:12:17;;;;;;;16.85;7.40;;;20.40;69.80;;;;;;5051928;28;20817;-73
2023/09/18 04:14:43;;;;;;;11.60;7.13;;;20.50;68.10;;;;;;5034161;28;20747;-73
2023/09/18 04:17:08;;;;;;;14.77;7.40;;;20.40;68.40;;;;;;5053472;28;20428;-72
2023/09/18 04:19:34;;;;;;;15.80;8.05;;;20.40;68.90;;;;;;5052337;28;20390;-72
2023/09/18 04:21:59;;;;;;;14.90;7.47;;;20.40;69.20;;;;;;5051699;28;20450;-73
2023/09/18 04:24:26;;;;;;;16.92;7.10;;;20.40;68.80;;;;;;5051881;28;20393;-72
2023/09/18 04:26:51;;;;;;;17.20;7.70;;;20.40;69.00;;;;;;5051679;28;20752;-73
2023/09/18 04:29:18;;;;;;;13.43;7.13;;;20.50;69.10;;;;;;5051583;28;20390;-71
2023/09/18 04:31:43;;;;;;;16.02;7.63;;;20.50;69.60;;;;;;5034103;28;20433;-74
2023/09/18 04:34:10;;;;;;;12.77;7.10;;;20.60;68.60;;;;;;5055535;28;21048;-71
2023/09/18 04:36:37;;;;;;;17.65;8.25;;;20.70;67.20;;;;;;5051775;28;20793;-72
2023/09/18 04:39:04;;;;;;;15.07;8.00;;;20.60;68.20;;;;;;5051631;28;20409;-71
2023/09/18 04:41:30;;;;;;;15.38;7.50;;;20.50;69.90;;;;;;5050983;28;20793;-72
2023/09/18 04:43:55;;;;;;;20.38;8.10;;;20.40;71.90;;;;;;5051595;28;20377;-71
2023/09/18 04:46:21;;;;;;;13.80;7.80;;;20.30;73.30;;;;;;5051857;28;20754;-73
2023/09/18 04:48:47;;;;;;;15.10;7.57;;;20.20;74.90;;;;;;5051211;28;20394;-74
2023/09/18 04:51:12;;;;;;;13.98;7.70;;;20.20;76.10;;;;;;5051074;28;20455;-73
2023/09/18 04:53:38;;;;;;;20.25;8.77;;;20.30;75.20;;;;;;5051659;28;20428;-73
2023/09/18 04:56:03;;;;;;;22.33;8.70;;;20.20;75.50;;;;;;5051199;28;20384;-73
2023/09/18 04:58:30;;;;;;;18.48;7.65;;;20.10;77.50;;;;;;5051431;28;20423;-71
2023/09/18 05:00:57;;;;;;;16.23;8.10;;;20.00;79.10;;;;;;5050554;28;20417;-72
2023/09/18 05:03:23;;;;;;;14.32;7.90;;;20.10;80.10;;;;;;5051750;28;20749;-72
2023/09/18 05:05:49;;;;;;;19.42;8.10;;;20.10;80.30;;;;;;5051658;28;20385;-72
2023/09/18 05:08:15;;;;;;;22.40;8.00;;;20.10;79.90;;;;;;5050841;28;20381;-74
2023/09/18 05:10:40;;;;;;;14.88;7.88;;;20.10;80.20;;;;;;5051422;28;20787;-72
2023/09/18 05:13:06;;;;;;;14.70;8.00;;;20.10;80.10;;;;;;5051068;28;20476;-72
2023/09/18 05:15:33;;;;;;;20.02;8.00;;;20.10;79.20;;;;;;5051525;28;20500;-73
2023/09/18 05:17:59;;;;;;;19.85;7.28;;;20.20;78.30;;;;;;5033868;28;20381;-71
2023/09/18 05:20:27;;;;;;;25.65;7.05;;;20.20;77.60;;;;;;5051039;28;20750;-71
2023/09/18 05:22:54;;;;;;;15.30;6.70;;;20.20;76.80;;;;;;5050636;28;20393;-72
2023/09/18 05:25:24;;;;;;;16.70;6.57;;;20.30;75.00;;;;;;5051542;28;20888;-72
2023/09/18 05:27:55;;;;;;;16.20;6.90;;;20.30;74.40;;;;;;5050974;28;20389;-72
2023/09/18 05:30:27;;;;;;;15.00;7.00;;;20.30;75.10;;;;;;5051367;28;20405;-72
2023/09/18 05:32:53;;;;;;;17.37;7.17;;;20.40;73.60;;;;;;5051161;28;20745;-72
2023/09/18 05:35:19;;;;;;;14.30;6.47;;;20.50;73.10;;;;;;5051106;28;20425;-73
2023/09/18 05:37:44;;;;;;;17.97;6.70;;;20.30;73.80;;;;;;5033003;28;20385;-73
2023/09/18 05:40:11;;;;;;;16.23;7.00;;;20.40;73.10;;;;;;5050912;28;20881;-72
2023/09/18 05:42:46;;;;;;;18.20;7.20;;;20.40;71.80;;;;;;5050791;28;20459;-72
2023/09/18 05:45:12;;;;;;;16.25;6.50;;;20.50;71.00;;;;;;5050952;28;20476;-74
2023/09/18 05:47:38;;;;;;;17.42;7.05;;;20.50;69.60;;;;;;5051282;28;20389;-74
2023/09/18 05:50:06;;;;;;;15.88;6.43;;;20.50;69.30;;;;;;5050507;28;20424;-71
2023/09/18 05:52:33;;;;;;;19.87;6.17;;;20.50;69.10;;;;;;5050868;28;20377;-72
2023/09/18 05:54:59;;;;;;;17.65;6.47;;;20.50;69.10;;;;;;5051103;28;20385;-72
2023/09/18 05:57:24;;;;;;;13.10;5.90;;;20.60;67.90;;;;;;5051147;28;20447;-73
2023/09/18 05:59:50;;;;;;;18.08;8.73;;;20.70;66.60;;;;;;5051103;28;20924;-72
2023/09/18 06:02:16;;;;;;;30.43;15.87;;;20.70;65.80;;;;;;5050918;28;20419;-73
2023/09/18 06:04:43;;;;;;;16.53;6.83;;;20.80;64.80;;;;;;5033121;28;20385;-73
2023/09/18 06:07:08;;;;;;;18.40;8.15;;;20.90;63.10;;;;;;5050860;28;20381;-72
2023/09/18 06:09:34;;;;;;;22.40;8.93;;;21.00;63.80;;;;;;5034408;28;20750;-73
2023/09/18 06:12:00;;;;;;;15.27;7.10;;;21.00;61.80;;;;;;5051098;28;20373;-74
2023/09/18 06:14:26;;;;;;;16.73;7.32;;;21.00;62.50;;;;;;5054927;28;20373;-73
2023/09/18 06:16:51;;;;;;;22.73;8.75;;;21.10;61.00;;;;;;5054846;28;20792;-73
2023/09/18 06:19:17;;;;;;;16.23;6.33;;;21.20;60.80;;;;;;5055477;28;20862;-72
2023/09/18 06:21:44;;;;;;;9.68;5.53;;;21.20;59.50;;;;;;5037652;28;20827;-72
2023/09/18 06:24:09;;;;;;;13.10;5.50;;;21.20;58.60;;;;;;5054647;28;20385;-73
2023/09/18 06:26:35;;;;;;;13.83;5.53;;;21.20;58.20;;;;;;5054598;28;20381;-73
2023/09/18 06:29:01;;;;;;;15.30;5.85;;;21.30;57.50;;;;;;5054975;28;20385;-72
2023/09/18 06:31:27;;;;;;;11.68;5.75;;;21.30;57.40;;;;;;5054038;28;20432;-72
2023/09/18 06:33:53;;;;;;;16.20;5.70;;;21.40;55.90;;;;;;5054142;28;20440;-73
2023/09/18 06:36:19;;;;;;;15.90;4.43;;;21.40;55.20;;;;;;5054431;28;20393;-71
2023/09/18 06:38:44;;;;;;;14.60;4.10;;;21.40;54.20;;;;;;5054272;28;20705;-72
2023/09/18 06:41:10;;;;;;;9.67;3.60;;;21.50;53.90;;;;;;5054026;28;20397;-72
2023/09/18 06:43:35;;;;;;;10.60;3.95;;;21.50;53.10;;;;;;5054602;28;20882;-73
2023/09/18 06:46:01;;;;;;;9.93;3.33;;;21.50;53.70;;;;;;5054415;28;20446;-73
2023/09/18 06:48:27;;;;;;;10.57;3.90;;;21.60;52.00;;;;;;5056523;28;20539;-73
2023/09/18 06:50:52;;;;;;;10.07;3.90;;;21.70;52.20;;;;;;5055149;28;20385;-73
2023/09/18 06:53:18;;;;;;;10.77;3.67;;;21.80;50.40;;;;;;5053911;28;20849;-71
2023/09/18 06:55:43;;;;;;;8.68;3.40;;;21.70;50.50;;;;;;5053807;28;20468;-72
2023/09/18 06:58:09;;;;;;;8.70;3.50;;;21.80;50.50;;;;;;5035960;28;20400;-73
2023/09/18 07:00:34;;;;;;;6.88;3.35;;;21.90;49.20;;;;;;5053635;28;20391;-73
2023/09/18 07:03:00;;;;;;;11.27;3.47;;;21.90;49.90;;;;;;5053583;28;20885;-73
2023/09/18 07:05:26;;;;;;;7.65;3.35;;;21.90;48.90;;;;;;5054467;28;20469;-72
2023/09/18 07:07:51;;;;;;;6.67;3.10;;;22.00;48.40;;;;;;5054894;28;20465;-73
2023/09/18 07:10:17;;;;;;;6.35;3.20;;;22.10;47.40;;;;;;5054583;28;21000;-72
2023/09/18 07:12:42;;;;;;;8.80;3.22;;;22.10;46.90;;;;;;5063540;28;20431;-72
2023/09/18 07:15:17;;;;;;;9.03;3.30;;;22.20;46.90;;;;;;5068002;28;20385;-74
2023/09/18 07:17:43;;;;;;;7.60;3.42;;;22.30;46.30;;;;;;5069088;28;20731;-73
2023/09/18 07:20:15;;;;;;;8.73;3.30;;;22.30;46.10;;;;;;5069891;28;20394;-74
2023/09/18 07:22:45;;;;;;;7.72;3.00;;;22.30;45.70;;;;;;5057542;28;20420;-73
2023/09/18 07:25:11;;;;;;;7.38;3.10;;;22.20;45.80;;;;;;5060857;28;20815;-74
2023/09/18 07:27:38;;;;;;;10.40;3.13;;;22.20;45.90;;;;;;5059673;28;20389;-72
2023/09/18 07:30:04;;;;;;;7.88;2.90;;;22.20;45.60;;;;;;5057631;28;20404;-72
2023/09/18 07:32:30;;;;;;;7.60;3.00;;;22.30;45.70;;;;;;5055824;28;20381;-71
2023/09/18 07:34:55;;;;;;;5.87;2.60;;;22.30;45.90;;;;;;5054315;28;20800;-72
2023/09/18 07:37:21;;;;;;;6.20;2.80;;;22.40;44.40;;;;;;5053194;28;20378;-71
2023/09/18 07:39:47;;;;;;;4.70;3.10;;;22.50;43.90;;;;;;5052844;28;20389;-71
2023/09/18 07:42:12;;;;;;;9.00;2.70;;;22.60;44.10;;;;;;5052531;28;20461;-70
2023/09/18 07:44:38;;;;;;;6.63;2.93;;;22.70;42.50;;;;;;5056563;28;20486;-73
2023/09/18 07:47:03;;;;;;;15.23;3.28;;;22.60;42.70;;;;;;5057616;28;20377;-74
2023/09/18 07:49:29;;;;;;;8.33;2.57;;;22.70;42.60;;;;;;5058725;28;20384;-73
2023/09/18 07:51:55;;;;;;;8.63;2.67;;;22.60;42.00;;;;;;5059214;28;20408;-72
2023/09/18 07:54:21;;;;;;;8.55;2.53;;;22.60;42.30;;;;;;5057821;28;20405;-72
2023/09/18 07:56:46;;;;;;;7.73;2.80;;;22.70;41.50;;;;;;5057390;28;20439;-73
2023/09/18 07:59:14;;;;;;;11.00;2.78;;;22.90;41.60;;;;;;5058086;28;20381;-73
2023/09/18 08:01:40;;;;;;;7.37;2.93;;;23.00;40.20;;;;;;5057397;28;20897;-73
2023/09/18 08:04:06;;;;;;;8.20;2.50;;;23.10;39.70;;;;;;5058398;28;20377;-74
2023/09/18 08:06:31;;;;;;;6.27;2.20;;;23.20;39.10;;;;;;5052204;28;20400;-72
2023/09/18 08:08:57;;;;;;;8.70;2.70;;;23.20;38.30;;;;;;5052142;28;20554;-73
2023/09/18 08:11:22;;;;;;;4.90;2.17;;;23.10;37.80;;;;;;5051717;28;20770;-72
2023/09/18 08:13:48;;;;;;;8.50;2.60;;;23.00;38.50;;;;;;5052051;28;20386;-71
2023/09/18 08:16:14;;;;;;;7.18;2.30;;;23.00;39.20;;;;;;5051921;28;20448;-72
2023/09/18 08:18:41;;;;;;;4.20;2.30;;;23.20;38.20;;;;;;5051712;28;20389;-71
2023/09/18 08:21:09;;;;;;;6.40;2.13;;;23.20;38.30;;;;;;5058168;28;20930;-72
2023/09/18 08:23:36;;;;;;;5.80;2.10;;;23.40;36.80;;;;;;5057238;28;20434;-72
2023/09/18 08:26:03;;;;;;;6.40;2.30;;;23.40;36.70;;;;;;5051459;28;20469;-73
2023/09/18 08:28:29;;;;;;;4.03;2.22;;;23.40;36.80;;;;;;5051354;28;20434;-72
2023/09/18 08:30:55;;;;;;;6.00;1.73;;;23.30;37.00;;;;;;5050955;28;20508;-73
2023/09/18 08:33:20;;;;;;;9.90;2.97;;;23.40;36.40;;;;;;5051743;28;20470;-71
2023/09/18 08:35:46;;;;;;;4.47;1.95;;;23.60;36.30;;;;;;5050807;28;20388;-71
2023/09/18 08:38:13;;;;;;;6.55;2.30;;;23.60;35.60;;;;;;5051944;28;20504;-73
2023/09/18 08:40:42;;;;;;;3.65;1.70;;;23.50;35.70;;;;;;5052823;28;20396;-71
2023/09/18 08:43:10;;;;;;;5.80;2.00;;;23.60;35.60;;;;;;5053494;28;20393;-71
2023/09/18 08:45:53;;;;;;;5.30;2.33;;;23.60;35.70;;;;;;5051719;28;20386;-71
2023/09/18 08:48:20;;;;;;;11.40;2.00;;;23.70;35.00;;;;;;5051839;28;20381;-72
2023/09/18 08:50:47;;;;;;;4.15;1.90;;;23.90;34.60;;;;;;5052297;28;20488;-72
2023/09/18 08:53:14;;;;;;;5.32;2.67;;;24.00;33.00;;;;;;5053374;28;20378;-72
2023/09/18 08:55:40;;;;;;;5.72;2.05;;;24.00;33.10;;;;;;5052488;28;20389;-71
2023/09/18 08:58:07;;;;;;;3.67;1.60;;;24.10;32.80;;;;;;5051739;28;20377;-71
2023/09/18 09:00:35;;;;;;;8.18;1.92;;;24.10;32.90;;;;;;5051271;28;20378;-72
2023/09/18 09:03:01;;;;;;;5.10;1.70;;;24.10;32.60;;;;;;5033426;28;20392;-72
2023/09/18 09:05:27;;;;;;;3.97;1.83;;;24.20;32.10;;;;;;5051152;28;20875;-71
2023/09/18 09:07:52;;;;;;;5.90;1.80;;;24.30;32.00;;;;;;5051428;28;20380;-74
2023/09/18 09:10:18;;;;;;;3.93;1.93;;;24.60;31.30;;;;;;5053300;23;20448;-77
2023/09/18 09:12:53;;;;;;;5.45;1.65;;;24.60;31.30;;;;;;5017179;28;20392;-76
2023/09/18 09:15:26;;;;;;;4.40;2.20;;;24.70;30.40;;;;;;4999689;28;20576;-77
2023/09/18 09:18:03;;;;;;;7.32;1.85;;;24.90;30.20;;;;;;4999046;28;20998;-77
2023/09/18 09:20:29;;;;;;;4.63;1.73;;;24.90;30.00;;;;;;5007770;28;20407;-78
2023/09/18 09:23:03;;;;;;;4.47;1.97;;;24.80;29.60;;;;;;5037071;28;20387;-76
2023/09/18 09:25:34;;;;;;;4.03;1.65;;;24.70;30.00;;;;;;5016907;28;20421;-78
2023/09/18 09:28:03;;;;;;;6.10;2.00;;;24.80;29.50;;;;;;5017748;28;20397;-77
2023/09/18 09:30:29;;;;;;;7.63;2.17;;;25.00;29.10;;;;;;5036137;28;20762;-76
2023/09/18 09:32:56;;;;;;;5.47;2.20;;;24.90;28.40;;;;;;5020302;28;20452;-76
2023/09/18 09:35:29;;;;;;;5.43;2.33;;;25.00;29.00;;;;;;5035453;28;20390;-78
2023/09/18 09:38:07;;;;;;;7.22;2.38;;;25.10;28.40;;;;;;5018244;28;20470;-75
2023/09/18 09:40:32;;;;;;;4.93;2.30;;;25.00;28.70;;;;;;5036194;28;20387;-76
2023/09/18 09:43:01;;;;;;;3.20;1.60;;;25.10;28.50;;;;;;5030918;28;20393;-76
2023/09/18 09:45:38;;;;;;;5.00;2.00;;;25.00;28.50;;;;;;5013156;28;20405;-76
2023/09/18 09:48:06;;;;;;;5.03;1.98;;;24.80;28.30;;;;;;5034268;28;20411;-76
2023/09/18 09:50:32;;;;;;;8.27;2.20;;;24.80;28.40;;;;;;5033877;28;20394;-75
2023/09/18 09:52:58;;;;;;;5.50;2.13;;;25.10;28.50;;;;;;5034954;28;20387;-77
2023/09/18 09:55:33;;;;;;;4.10;2.00;;;25.10;27.80;;;;;;5018568;28;20457;-76
2023/09/18 09:58:04;;;;;;;5.47;1.77;;;25.10;27.20;;;;;;5036660;28;20378;-77
2023/09/18 10:00:43;;;;;;;3.45;2.00;;;25.00;27.10;;;;;;5019647;28;20399;-77
2023/09/18 10:03:10;;;;;;;5.30;2.28;;;24.80;28.30;;;;;;5044059;28;20747;-77
2023/09/18 10:05:42;;;;;;;5.93;2.10;;;24.90;28.20;;;;;;5027588;28;20405;-79
2023/09/18 10:08:26;;;;;;;4.45;2.20;;;24.90;27.90;;;;;;5042528;28;20744;-77
2023/09/18 10:10:54;;;;;;;5.93;2.05;;;24.80;28.30;;;;;;5041503;28;20419;-77
2023/09/18 10:13:40;;;;;;;5.13;2.23;;;24.80;28.00;;;;;;5038606;28;20387;-77
2023/09/18 10:16:10;;;;;;;6.35;2.33;;;24.60;28.60;;;;;;5037649;28;20383;-77
2023/09/18 10:19:00;;;;;;;5.80;2.15;;;24.60;29.00;;;;;;5036851;28;20902;-77
2023/09/18 10:21:43;;;;;;;5.43;1.90;;;24.60;29.00;;;;;;5018651;28;20395;-77
2023/09/18 10:24:23;;;;;;;3.55;2.10;;;24.60;28.40;;;;;;5035945;28;20418;-77
2023/09/18 10:26:58;;;;;;;6.75;2.03;;;24.40;28.70;;;;;;5037566;28;20398;-76
2023/09/18 10:29:25;;;;;;;11.45;2.03;;;24.40;28.60;;;;;;5034999;28;20383;-76
2023/09/18 10:31:54;;;;;;;4.70;2.08;;;24.40;28.20;;;;;;5034369;28;20486;-77
2023/09/18 10:34:22;;;;;;;6.13;1.95;;;24.40;28.50;;;;;;5035262;28;20387;-76
2023/09/18 10:36:48;;;;;;;5.85;2.00;;;24.40;29.00;;;;;;5018393;28;20748;-77
2023/09/18 10:39:19;;;;;;;3.90;1.95;;;24.40;28.80;;;;;;5036368;28;20414;-75
2023/09/18 10:41:47;;;;;;;4.03;2.60;;;24.30;29.20;;;;;;5036523;28;20397;-77
2023/09/18 10:44:14;;;;;;;7.85;2.00;;;24.40;28.80;;;;;;5037479;28;20399;-77
2023/09/18 10:46:39;;;;;;;3.85;2.20;;;24.40;29.00;;;;;;5037598;28;20418;-76
2023/09/18 10:49:05;;;;;;;4.17;1.87;;;24.50;28.40;;;;;;5035642;28;20453;-77
2023/09/18 10:51:33;;;;;;;5.55;2.50;;;24.40;27.80;;;;;;5037016;28;20423;-77
2023/09/18 10:53:59;;;;;;;5.07;2.08;;;24.40;28.30;;;;;;5039818;28;20443;-78
2023/09/18 10:56:26;;;;;;;6.40;2.75;;;24.40;28.10;;;;;;5045443;28;20543;-77
2023/09/18 10:59:03;;;;;;;3.80;1.90;;;24.50;27.70;;;;;;5027064;28;20395;-77
2023/09/18 11:01:30;;;;;;;4.20;2.20;;;24.50;26.90;;;;;;5046151;28;20421;-76
2023/09/18 11:04:01;;;;;;;4.38;2.17;;;24.60;26.20;;;;;;5045993;28;20387;-76
2023/09/18 11:06:28;;;;;;;6.53;2.45;;;24.50;26.30;;;;;;5045173;28;20387;-77
2023/09/18 11:09:03;;;;;;;7.53;2.00;;;24.60;26.60;;;;;;5023713;28;20474;-78
2023/09/18 11:11:32;;;;;;;3.63;2.38;;;24.70;26.10;;;;;;5036435;28;20771;-77
2023/09/18 11:13:58;;;;;;;3.50;2.03;;;24.70;26.00;;;;;;5033425;28;20441;-76
2023/09/18 11:16:27;;;;;;;5.13;2.20;;;24.80;25.60;;;;;;5034646;28;20387;-77
2023/09/18 11:18:58;;;;;;;4.75;2.30;;;24.80;25.40;;;;;;5036145;28;20418;-77
2023/09/18 11:21:28;;;;;;;5.20;2.20;;;24.90;25.80;;;;;;5017913;28;20402;-76
2023/09/18 11:24:06;;;;;;;6.85;2.58;;;25.00;25.60;;;;;;5036159;28;20663;-78
2023/09/18 11:26:34;;;;;;;3.75;2.28;;;25.10;26.10;;;;;;5037849;28;20479;-78
2023/09/18 11:29:09;;;;;;;5.07;2.20;;;25.10;25.20;;;;;;5037162;28;20401;-76
2023/09/18 11:31:50;;;;;;;3.80;2.30;;;25.20;24.60;;;;;;5018223;28;20407;-78
2023/09/18 11:34:20;;;;;;;3.08;1.90;;;25.30;25.00;;;;;;5036464;28;20818;-77
2023/09/18 11:36:46;;;;;;;5.90;2.10;;;25.60;24.40;;;;;;5036317;28;20433;-77
2023/09/18 11:39:12;;;;;;;4.35;2.10;;;26.00;23.80;;;;;;5021568;28;20400;-77
2023/09/18 11:41:39;;;;;;;6.93;2.30;;;26.30;23.10;;;;;;5037852;28;20391;-77
2023/09/18 11:44:11;;;;;;;3.25;2.00;;;26.40;21.80;;;;;;5038036;28;20418;-78
2023/09/18 11:46:41;;;;;;;7.10;2.50;;;26.50;21.80;;;;;;5039712;28;20387;-76
2023/09/18 11:49:12;;;;;;;5.93;2.30;;;26.70;21.80;;;;;;5040094;28;20799;-77
2023/09/18 11:51:38;;;;;;;4.32;2.20;;;26.60;20.70;;;;;;5040702;28;20482;-76
2023/09/18 11:54:07;;;;;;;4.68;2.00;;;26.40;20.80;;;;;;5020209;28;20481;-75
2023/09/18 11:56:36;;;;;;;6.28;2.40;;;26.20;21.10;;;;;;5035458;28;20387;-77
2023/09/18 11:59:04;;;;;;;5.45;2.40;;;26.20;21.50;;;;;;5034704;28;20390;-77
2023/09/18 12:01:31;;;;;;;9.27;2.40;;;26.30;21.60;;;;;;5017485;28;20387;-77
2023/09/18 12:04:11;;;;;;;4.90;2.60;;;26.60;21.80;;;;;;5034933;28;20402;-77
2023/09/18 12:06:39;;;;;;;4.07;2.00;;;26.70;19.90;;;;;;5017746;28;20391;-76
2023/09/18 12:09:05;;;;;;;5.80;2.00;;;26.80;19.40;;;;;;5036851;28;20445;-78
2023/09/18 12:11:34;;;;;;;6.30;2.30;;;26.80;20.00;;;;;;5017144;28;20422;-77
2023/09/18 12:14:00;;;;;;;4.78;2.40;;;27.00;20.00;;;;;;5038121;28;20379;-77
2023/09/18 12:16:27;;;;;;;7.85;2.35;;;26.80;19.70;;;;;;5035304;28;20388;-76
2023/09/18 12:18:52;;;;;;;5.57;2.33;;;26.70;20.30;;;;;;5037128;28;20740;-76
2023/09/18 12:21:18;;;;;;;8.65;2.40;;;26.40;20.60;;;;;;5035605;28;20425;-75
2023/09/18 12:23:46;;;;;;;5.20;2.50;;;26.50;20.80;;;;;;5034827;28;20898;-77
2023/09/18 12:26:13;;;;;;;8.10;2.50;;;26.70;19.70;;;;;;5037818;28;20610;-77
2023/09/18 12:28:43;;;;;;;7.70;2.50;;;27.00;19.70;;;;;;5043827;28;20455;-77
2023/09/18 12:31:13;;;;;;;3.50;2.10;;;27.10;18.60;;;;;;5020354;28;20911;-76
2023/09/18 12:33:40;;;;;;;4.40;2.20;;;27.10;18.90;;;;;;5033519;28;20387;-76
2023/09/18 12:36:08;;;;;;;3.40;2.10;;;27.00;18.90;;;;;;5037943;28;20422;-76
2023/09/18 12:38:34;;;;;;;3.88;1.90;;;26.90;18.60;;;;;;5036371;28;20407;-77
2023/09/18 12:41:05;;;;;;;5.03;2.17;;;26.80;18.80;;;;;;5024014;28;20454;-76
2023/09/18 12:43:40;;;;;;;3.80;2.20;;;26.90;18.80;;;;;;5016151;28;20408;-77